sensor_id;sensor_type;location;lat;lon;timestamp;P1;durP1;ratioP1;P2;durP2;ratioP2
42714;SDS011;28351;51.480;5.706;2023-08-06T00:03:25;11.13;;;5.45;;
42714;SDS011;28351;51.480;5.706;2023-08-06T00:06:05;7.97;;;6.10;;
42714;SDS011;28351;51.480;5.706;2023-08-06T00:08:31;7.35;;;5.75;;
42714;SDS011;28351;51.480;5.706;2023-08-06T00:10:57;8.20;;;5.32;;
42714;SDS011;28351;51.480;5.706;2023-08-06T00:13:22;8.52;;;5.90;;
42714;SDS011;28351;51.480;5.706;2023-08-06T00:15:48;9.05;;;5.43;;
42714;SDS011;28351;51.480;5.706;2023-08-06T00:18:17;7.10;;;5.63;;
42714;SDS011;28351;51.480;5.706;2023-08-06T00:23:08;10.15;;;5.28;;
42714;SDS011;28351;51.480;5.706;2023-08-06T00:25:33;7.63;;;5.25;;
42714;SDS011;28351;51.480;5.706;2023-08-06T00:27:59;9.68;;;5.65;;
42714;SDS011;28351;51.480;5.706;2023-08-06T00:30:25;8.10;;;5.32;;
42714;SDS011;28351;51.480;5.706;2023-08-06T00:32:50;9.13;;;5.90;;
42714;SDS011;28351;51.480;5.706;2023-08-06T00:35:16;10.65;;;5.85;;
42714;SDS011;28351;51.480;5.706;2023-08-06T00:37:41;12.73;;;5.63;;
42714;SDS011;28351;51.480;5.706;2023-08-06T00:40:07;7.18;;;5.68;;
42714;SDS011;28351;51.480;5.706;2023-08-06T00:42:35;12.18;;;5.90;;
42714;SDS011;28351;51.480;5.706;2023-08-06T00:45:01;8.40;;;5.68;;
42714;SDS011;28351;51.480;5.706;2023-08-06T00:47:28;8.68;;;5.80;;
42714;SDS011;28351;51.480;5.706;2023-08-06T00:49:53;12.23;;;5.72;;
42714;SDS011;28351;51.480;5.706;2023-08-06T00:52:19;9.75;;;6.28;;
42714;SDS011;28351;51.480;5.706;2023-08-06T00:54:45;9.45;;;6.18;;
42714;SDS011;28351;51.480;5.706;2023-08-06T00:57:11;9.23;;;6.78;;
42714;SDS011;28351;51.480;5.706;2023-08-06T00:59:36;9.07;;;6.18;;
42714;SDS011;28351;51.480;5.706;2023-08-06T01:02:02;9.63;;;6.70;;
42714;SDS011;28351;51.480;5.706;2023-08-06T01:04:28;10.85;;;6.70;;
42714;SDS011;28351;51.480;5.706;2023-08-06T01:09:35;8.48;;;6.38;;
42714;SDS011;28351;51.480;5.706;2023-08-06T01:17:28;8.90;;;6.43;;
42714;SDS011;28351;51.480;5.706;2023-08-06T01:19:55;11.82;;;6.80;;
42714;SDS011;28351;51.480;5.706;2023-08-06T01:22:21;14.30;;;7.20;;
42714;SDS011;28351;51.480;5.706;2023-08-06T01:24:47;9.60;;;6.72;;
42714;SDS011;28351;51.480;5.706;2023-08-06T01:27:17;10.35;;;7.20;;
42714;SDS011;28351;51.480;5.706;2023-08-06T01:30:09;10.63;;;6.85;;
42714;SDS011;28351;51.480;5.706;2023-08-06T01:32:39;9.85;;;6.88;;
42714;SDS011;28351;51.480;5.706;2023-08-06T01:35:09;8.63;;;6.72;;
42714;SDS011;28351;51.480;5.706;2023-08-06T01:37:36;11.98;;;7.03;;
42714;SDS011;28351;51.480;5.706;2023-08-06T01:40:10;14.27;;;6.97;;
42714;SDS011;28351;51.480;5.706;2023-08-06T01:42:39;10.23;;;7.18;;
42714;SDS011;28351;51.480;5.706;2023-08-06T01:45:06;11.48;;;7.22;;
42714;SDS011;28351;51.480;5.706;2023-08-06T01:47:32;10.43;;;7.25;;
42714;SDS011;28351;51.480;5.706;2023-08-06T01:49:58;14.63;;;7.05;;
42714;SDS011;28351;51.480;5.706;2023-08-06T01:52:24;13.05;;;7.38;;
42714;SDS011;28351;51.480;5.706;2023-08-06T01:54:49;11.38;;;6.78;;
42714;SDS011;28351;51.480;5.706;2023-08-06T01:57:15;10.45;;;7.32;;
42714;SDS011;28351;51.480;5.706;2023-08-06T01:59:41;8.85;;;6.93;;
42714;SDS011;28351;51.480;5.706;2023-08-06T02:02:06;10.60;;;7.00;;
42714;SDS011;28351;51.480;5.706;2023-08-06T02:04:32;11.00;;;7.28;;
42714;SDS011;28351;51.480;5.706;2023-08-06T02:06:58;12.93;;;7.00;;
42714;SDS011;28351;51.480;5.706;2023-08-06T02:09:23;9.07;;;6.60;;
42714;SDS011;28351;51.480;5.706;2023-08-06T02:11:49;11.75;;;6.40;;
42714;SDS011;28351;51.480;5.706;2023-08-06T02:14:15;11.18;;;7.03;;
42714;SDS011;28351;51.480;5.706;2023-08-06T02:16:40;11.55;;;7.25;;
42714;SDS011;28351;51.480;5.706;2023-08-06T02:19:06;10.15;;;7.20;;
42714;SDS011;28351;51.480;5.706;2023-08-06T02:21:31;10.35;;;6.78;;
42714;SDS011;28351;51.480;5.706;2023-08-06T02:23:57;11.43;;;7.25;;
42714;SDS011;28351;51.480;5.706;2023-08-06T02:26:23;10.50;;;6.70;;
42714;SDS011;28351;51.480;5.706;2023-08-06T02:28:48;10.90;;;7.10;;
42714;SDS011;28351;51.480;5.706;2023-08-06T02:31:14;10.90;;;6.80;;
42714;SDS011;28351;51.480;5.706;2023-08-06T02:33:39;11.90;;;6.78;;
42714;SDS011;28351;51.480;5.706;2023-08-06T02:36:05;9.60;;;6.32;;
42714;SDS011;28351;51.480;5.706;2023-08-06T02:38:31;11.27;;;6.25;;
42714;SDS011;28351;51.480;5.706;2023-08-06T02:40:57;14.50;;;6.53;;
42714;SDS011;28351;51.480;5.706;2023-08-06T02:43:23;14.40;;;7.47;;
42714;SDS011;28351;51.480;5.706;2023-08-06T02:45:49;9.82;;;6.45;;
42714;SDS011;28351;51.480;5.706;2023-08-06T02:48:14;18.80;;;6.90;;
42714;SDS011;28351;51.480;5.706;2023-08-06T02:50:40;8.68;;;5.93;;
42714;SDS011;28351;51.480;5.706;2023-08-06T02:53:07;9.20;;;6.75;;
42714;SDS011;28351;51.480;5.706;2023-08-06T02:55:33;17.20;;;6.78;;
42714;SDS011;28351;51.480;5.706;2023-08-06T02:58:00;12.77;;;6.78;;
42714;SDS011;28351;51.480;5.706;2023-08-06T03:00:26;14.32;;;6.78;;
42714;SDS011;28351;51.480;5.706;2023-08-06T03:02:52;12.38;;;6.63;;
42714;SDS011;28351;51.480;5.706;2023-08-06T03:05:18;9.15;;;6.50;;
42714;SDS011;28351;51.480;5.706;2023-08-06T03:07:44;11.32;;;6.30;;
42714;SDS011;28351;51.480;5.706;2023-08-06T03:10:10;8.70;;;6.38;;
42714;SDS011;28351;51.480;5.706;2023-08-06T03:12:35;11.52;;;6.10;;
42714;SDS011;28351;51.480;5.706;2023-08-06T03:15:01;13.30;;;6.57;;
42714;SDS011;28351;51.480;5.706;2023-08-06T03:17:27;15.95;;;6.93;;
42714;SDS011;28351;51.480;5.706;2023-08-06T03:19:52;9.57;;;6.10;;
42714;SDS011;28351;51.480;5.706;2023-08-06T03:22:18;11.25;;;6.38;;
42714;SDS011;28351;51.480;5.706;2023-08-06T03:24:43;11.25;;;6.82;;
42714;SDS011;28351;51.480;5.706;2023-08-06T03:27:09;10.38;;;6.40;;
42714;SDS011;28351;51.480;5.706;2023-08-06T03:29:35;10.43;;;5.93;;
42714;SDS011;28351;51.480;5.706;2023-08-06T03:32:00;13.25;;;6.28;;
42714;SDS011;28351;51.480;5.706;2023-08-06T03:34:26;10.18;;;6.45;;
42714;SDS011;28351;51.480;5.706;2023-08-06T03:36:51;12.68;;;7.22;;
42714;SDS011;28351;51.480;5.706;2023-08-06T03:39:17;12.38;;;6.72;;
42714;SDS011;28351;51.480;5.706;2023-08-06T03:41:43;11.77;;;6.38;;
42714;SDS011;28351;51.480;5.706;2023-08-06T03:44:08;9.52;;;6.00;;
42714;SDS011;28351;51.480;5.706;2023-08-06T03:46:34;9.18;;;6.40;;
42714;SDS011;28351;51.480;5.706;2023-08-06T03:49:00;10.38;;;6.32;;
42714;SDS011;28351;51.480;5.706;2023-08-06T03:51:25;11.10;;;6.47;;
42714;SDS011;28351;51.480;5.706;2023-08-06T03:53:51;9.55;;;6.10;;
42714;SDS011;28351;51.480;5.706;2023-08-06T03:56:17;14.63;;;6.30;;
42714;SDS011;28351;51.480;5.706;2023-08-06T03:58:42;7.82;;;5.32;;
42714;SDS011;28351;51.480;5.706;2023-08-06T04:01:08;11.38;;;5.80;;
42714;SDS011;28351;51.480;5.706;2023-08-06T04:03:33;13.65;;;5.28;;
42714;SDS011;28351;51.480;5.706;2023-08-06T04:05:59;10.77;;;6.32;;
42714;SDS011;28351;51.480;5.706;2023-08-06T04:08:26;11.02;;;6.03;;
42714;SDS011;28351;51.480;5.706;2023-08-06T04:10:52;9.35;;;5.70;;
42714;SDS011;28351;51.480;5.706;2023-08-06T04:13:18;11.02;;;6.45;;
42714;SDS011;28351;51.480;5.706;2023-08-06T04:15:44;11.68;;;5.88;;
42714;SDS011;28351;51.480;5.706;2023-08-06T04:18:09;11.68;;;6.40;;
42714;SDS011;28351;51.480;5.706;2023-08-06T04:20:41;11.00;;;6.30;;
42714;SDS011;28351;51.480;5.706;2023-08-06T04:23:10;9.63;;;6.20;;
42714;SDS011;28351;51.480;5.706;2023-08-06T04:25:36;9.77;;;6.20;;
42714;SDS011;28351;51.480;5.706;2023-08-06T04:28:02;14.63;;;6.30;;
42714;SDS011;28351;51.480;5.706;2023-08-06T04:30:27;12.10;;;5.93;;
42714;SDS011;28351;51.480;5.706;2023-08-06T04:32:53;11.20;;;6.88;;
42714;SDS011;28351;51.480;5.706;2023-08-06T04:35:19;12.52;;;6.75;;
42714;SDS011;28351;51.480;5.706;2023-08-06T04:37:44;11.77;;;6.78;;
42714;SDS011;28351;51.480;5.706;2023-08-06T04:40:10;10.77;;;7.20;;
42714;SDS011;28351;51.480;5.706;2023-08-06T04:42:36;10.55;;;6.75;;
42714;SDS011;28351;51.480;5.706;2023-08-06T04:45:01;12.43;;;7.30;;
42714;SDS011;28351;51.480;5.706;2023-08-06T04:47:27;11.07;;;7.10;;
42714;SDS011;28351;51.480;5.706;2023-08-06T04:49:53;12.05;;;6.75;;
42714;SDS011;28351;51.480;5.706;2023-08-06T04:52:18;12.05;;;7.25;;
42714;SDS011;28351;51.480;5.706;2023-08-06T04:54:44;12.85;;;7.10;;
42714;SDS011;28351;51.480;5.706;2023-08-06T04:57:10;14.70;;;6.75;;
42714;SDS011;28351;51.480;5.706;2023-08-06T04:59:35;11.05;;;7.38;;
42714;SDS011;28351;51.480;5.706;2023-08-06T05:02:01;10.90;;;7.55;;
42714;SDS011;28351;51.480;5.706;2023-08-06T05:04:27;10.43;;;7.15;;
42714;SDS011;28351;51.480;5.706;2023-08-06T05:06:53;11.18;;;6.80;;
42714;SDS011;28351;51.480;5.706;2023-08-06T05:09:19;12.18;;;6.80;;
42714;SDS011;28351;51.480;5.706;2023-08-06T05:11:46;9.48;;;7.20;;
42714;SDS011;28351;51.480;5.706;2023-08-06T05:14:12;13.00;;;6.72;;
42714;SDS011;28351;51.480;5.706;2023-08-06T05:16:37;12.40;;;6.90;;
42714;SDS011;28351;51.480;5.706;2023-08-06T05:19:03;11.30;;;7.05;;
42714;SDS011;28351;51.480;5.706;2023-08-06T05:21:29;18.38;;;7.93;;
42714;SDS011;28351;51.480;5.706;2023-08-06T05:23:54;13.73;;;7.78;;
42714;SDS011;28351;51.480;5.706;2023-08-06T05:26:20;9.73;;;7.28;;
42714;SDS011;28351;51.480;5.706;2023-08-06T05:28:45;10.98;;;6.63;;
42714;SDS011;28351;51.480;5.706;2023-08-06T05:31:11;12.75;;;6.78;;
42714;SDS011;28351;51.480;5.706;2023-08-06T05:33:37;10.20;;;6.32;;
42714;SDS011;28351;51.480;5.706;2023-08-06T05:36:03;11.52;;;7.55;;
42714;SDS011;28351;51.480;5.706;2023-08-06T05:38:29;11.60;;;7.22;;
42714;SDS011;28351;51.480;5.706;2023-08-06T05:40:55;10.90;;;8.57;;
42714;SDS011;28351;51.480;5.706;2023-08-06T05:43:21;12.30;;;8.75;;
42714;SDS011;28351;51.480;5.706;2023-08-06T05:45:49;13.70;;;9.88;;
42714;SDS011;28351;51.480;5.706;2023-08-06T05:48:15;14.85;;;10.80;;
42714;SDS011;28351;51.480;5.706;2023-08-06T05:50:41;15.27;;;11.23;;
42714;SDS011;28351;51.480;5.706;2023-08-06T05:53:07;18.25;;;11.68;;
42714;SDS011;28351;51.480;5.706;2023-08-06T05:55:33;17.90;;;12.00;;
42714;SDS011;28351;51.480;5.706;2023-08-06T05:57:59;15.90;;;11.68;;
42714;SDS011;28351;51.480;5.706;2023-08-06T06:00:25;17.67;;;12.77;;
42714;SDS011;28351;51.480;5.706;2023-08-06T06:02:50;23.52;;;12.13;;
42714;SDS011;28351;51.480;5.706;2023-08-06T06:05:16;18.98;;;12.32;;
42714;SDS011;28351;51.480;5.706;2023-08-06T06:07:41;14.60;;;11.55;;
42714;SDS011;28351;51.480;5.706;2023-08-06T06:10:07;13.93;;;9.35;;
42714;SDS011;28351;51.480;5.706;2023-08-06T06:12:33;11.07;;;8.85;;
42714;SDS011;28351;51.480;5.706;2023-08-06T06:14:59;13.23;;;9.60;;
42714;SDS011;28351;51.480;5.706;2023-08-06T06:17:26;14.13;;;8.93;;
42714;SDS011;28351;51.480;5.706;2023-08-06T06:19:52;13.48;;;9.32;;
42714;SDS011;28351;51.480;5.706;2023-08-06T06:22:17;11.90;;;8.55;;
42714;SDS011;28351;51.480;5.706;2023-08-06T06:24:43;11.88;;;8.20;;
42714;SDS011;28351;51.480;5.706;2023-08-06T06:27:08;13.73;;;8.07;;
42714;SDS011;28351;51.480;5.706;2023-08-06T06:29:34;13.00;;;8.88;;
42714;SDS011;28351;51.480;5.706;2023-08-06T06:32:00;14.60;;;8.30;;
42714;SDS011;28351;51.480;5.706;2023-08-06T06:34:26;10.65;;;7.70;;
42714;SDS011;28351;51.480;5.706;2023-08-06T06:36:51;11.13;;;8.23;;
42714;SDS011;28351;51.480;5.706;2023-08-06T06:39:17;10.80;;;8.70;;
42714;SDS011;28351;51.480;5.706;2023-08-06T06:41:42;22.17;;;9.68;;
42714;SDS011;28351;51.480;5.706;2023-08-06T06:44:09;15.18;;;9.65;;
42714;SDS011;28351;51.480;5.706;2023-08-06T06:46:35;17.83;;;9.40;;
42714;SDS011;28351;51.480;5.706;2023-08-06T06:49:01;15.38;;;9.35;;
42714;SDS011;28351;51.480;5.706;2023-08-06T06:51:26;13.10;;;9.40;;
42714;SDS011;28351;51.480;5.706;2023-08-06T06:53:52;10.48;;;8.52;;
42714;SDS011;28351;51.480;5.706;2023-08-06T06:56:17;9.57;;;7.10;;
42714;SDS011;28351;51.480;5.706;2023-08-06T06:58:43;9.93;;;5.97;;
42714;SDS011;28351;51.480;5.706;2023-08-06T07:01:09;11.32;;;6.50;;
42714;SDS011;28351;51.480;5.706;2023-08-06T07:03:36;13.32;;;7.22;;
42714;SDS011;28351;51.480;5.706;2023-08-06T07:06:02;11.02;;;6.28;;
42714;SDS011;28351;51.480;5.706;2023-08-06T07:08:28;10.55;;;6.95;;
42714;SDS011;28351;51.480;5.706;2023-08-06T07:11:03;11.48;;;7.03;;
42714;SDS011;28351;51.480;5.706;2023-08-06T07:13:30;9.98;;;5.97;;
42714;SDS011;28351;51.480;5.706;2023-08-06T07:15:56;13.15;;;6.18;;
42714;SDS011;28351;51.480;5.706;2023-08-06T07:18:22;14.52;;;6.28;;
42714;SDS011;28351;51.480;5.706;2023-08-06T07:20:51;9.10;;;5.93;;
42714;SDS011;28351;51.480;5.706;2023-08-06T07:23:19;11.50;;;6.57;;
42714;SDS011;28351;51.480;5.706;2023-08-06T07:25:46;9.90;;;6.68;;
42714;SDS011;28351;51.480;5.706;2023-08-06T07:28:13;14.18;;;7.38;;
42714;SDS011;28351;51.480;5.706;2023-08-06T07:30:39;9.52;;;7.05;;
42714;SDS011;28351;51.480;5.706;2023-08-06T07:33:09;8.70;;;5.50;;
42714;SDS011;28351;51.480;5.706;2023-08-06T07:35:35;8.63;;;4.95;;
42714;SDS011;28351;51.480;5.706;2023-08-06T07:38:01;7.68;;;4.15;;
42714;SDS011;28351;51.480;5.706;2023-08-06T07:40:27;4.72;;;3.58;;
42714;SDS011;28351;51.480;5.706;2023-08-06T07:42:53;6.38;;;3.45;;
42714;SDS011;28351;51.480;5.706;2023-08-06T07:45:19;8.52;;;3.63;;
42714;SDS011;28351;51.480;5.706;2023-08-06T07:47:45;6.70;;;4.07;;
42714;SDS011;28351;51.480;5.706;2023-08-06T07:50:10;6.30;;;4.38;;
42714;SDS011;28351;51.480;5.706;2023-08-06T07:52:36;4.90;;;3.00;;
42714;SDS011;28351;51.480;5.706;2023-08-06T07:55:02;3.38;;;2.33;;
42714;SDS011;28351;51.480;5.706;2023-08-06T07:57:32;2.45;;;1.80;;
42714;SDS011;28351;51.480;5.706;2023-08-06T08:00:06;2.85;;;1.92;;
42714;SDS011;28351;51.480;5.706;2023-08-06T08:05:20;2.63;;;1.50;;
42714;SDS011;28351;51.480;5.706;2023-08-06T08:07:45;2.85;;;1.20;;
42714;SDS011;28351;51.480;5.706;2023-08-06T08:10:11;1.67;;;1.10;;
42714;SDS011;28351;51.480;5.706;2023-08-06T08:12:37;1.90;;;1.10;;
42714;SDS011;28351;51.480;5.706;2023-08-06T08:15:02;1.13;;;1.02;;
42714;SDS011;28351;51.480;5.706;2023-08-06T08:17:29;1.10;;;0.90;;
42714;SDS011;28351;51.480;5.706;2023-08-06T08:19:54;1.00;;;0.90;;
42714;SDS011;28351;51.480;5.706;2023-08-06T08:22:20;1.25;;;1.13;;
42714;SDS011;28351;51.480;5.706;2023-08-06T08:24:45;4.13;;;1.70;;
42714;SDS011;28351;51.480;5.706;2023-08-06T08:27:11;1.95;;;1.58;;
42714;SDS011;28351;51.480;5.706;2023-08-06T08:29:36;2.38;;;2.10;;
42714;SDS011;28351;51.480;5.706;2023-08-06T08:32:02;3.05;;;2.63;;
42714;SDS011;28351;51.480;5.706;2023-08-06T08:34:28;3.08;;;2.78;;
42714;SDS011;28351;51.480;5.706;2023-08-06T08:36:53;4.85;;;3.25;;
42714;SDS011;28351;51.480;5.706;2023-08-06T08:39:19;4.32;;;3.92;;
42714;SDS011;28351;51.480;5.706;2023-08-06T08:41:44;5.15;;;3.85;;
42714;SDS011;28351;51.480;5.706;2023-08-06T08:44:10;6.07;;;4.32;;
42714;SDS011;28351;51.480;5.706;2023-08-06T08:46:38;8.25;;;5.25;;
42714;SDS011;28351;51.480;5.706;2023-08-06T08:49:05;9.52;;;4.90;;
42714;SDS011;28351;51.480;5.706;2023-08-06T08:51:32;8.23;;;4.93;;
42714;SDS011;28351;51.480;5.706;2023-08-06T08:53:59;7.85;;;4.88;;
42714;SDS011;28351;51.480;5.706;2023-08-06T08:56:33;10.77;;;5.30;;
42714;SDS011;28351;51.480;5.706;2023-08-06T08:58:58;10.60;;;4.80;;
42714;SDS011;28351;51.480;5.706;2023-08-06T09:01:24;10.85;;;4.78;;
42714;SDS011;28351;51.480;5.706;2023-08-06T09:03:51;9.90;;;4.93;;
42714;SDS011;28351;51.480;5.706;2023-08-06T09:06:20;12.38;;;4.60;;
42714;SDS011;28351;51.480;5.706;2023-08-06T09:08:51;8.77;;;4.50;;
42714;SDS011;28351;51.480;5.706;2023-08-06T09:11:24;9.27;;;4.43;;
42714;SDS011;28351;51.480;5.706;2023-08-06T09:13:51;9.55;;;4.82;;
42714;SDS011;28351;51.480;5.706;2023-08-06T09:16:18;8.60;;;4.43;;
42714;SDS011;28351;51.480;5.706;2023-08-06T09:18:44;9.52;;;4.88;;
42714;SDS011;28351;51.480;5.706;2023-08-06T09:21:13;10.63;;;5.10;;
42714;SDS011;28351;51.480;5.706;2023-08-06T09:23:41;7.22;;;4.78;;
42714;SDS011;28351;51.480;5.706;2023-08-06T09:26:06;12.65;;;5.45;;
42714;SDS011;28351;51.480;5.706;2023-08-06T09:28:36;11.80;;;5.35;;
42714;SDS011;28351;51.480;5.706;2023-08-06T09:31:07;9.02;;;5.30;;
42714;SDS011;28351;51.480;5.706;2023-08-06T09:33:35;8.05;;;4.25;;
42714;SDS011;28351;51.480;5.706;2023-08-06T09:36:09;10.07;;;4.03;;
42714;SDS011;28351;51.480;5.706;2023-08-06T09:38:38;8.27;;;3.90;;
42714;SDS011;28351;51.480;5.706;2023-08-06T09:41:07;11.23;;;4.22;;
42714;SDS011;28351;51.480;5.706;2023-08-06T09:43:44;11.70;;;4.20;;
42714;SDS011;28351;51.480;5.706;2023-08-06T09:46:13;10.30;;;3.92;;
42714;SDS011;28351;51.480;5.706;2023-08-06T09:48:40;14.00;;;4.15;;
42714;SDS011;28351;51.480;5.706;2023-08-06T09:53:35;9.95;;;3.70;;
42714;SDS011;28351;51.480;5.706;2023-08-06T09:56:03;11.63;;;3.80;;
42714;SDS011;28351;51.480;5.706;2023-08-06T09:58:30;8.05;;;3.67;;
42714;SDS011;28351;51.480;5.706;2023-08-06T10:00:57;9.80;;;4.05;;
42714;SDS011;28351;51.480;5.706;2023-08-06T10:03:27;8.00;;;3.85;;
42714;SDS011;28351;51.480;5.706;2023-08-06T10:08:21;10.48;;;3.80;;
42714;SDS011;28351;51.480;5.706;2023-08-06T10:10:47;9.68;;;3.78;;
42714;SDS011;28351;51.480;5.706;2023-08-06T10:13:12;8.88;;;4.22;;
42714;SDS011;28351;51.480;5.706;2023-08-06T10:15:38;10.85;;;4.30;;
42714;SDS011;28351;51.480;5.706;2023-08-06T10:18:05;10.10;;;4.32;;
42714;SDS011;28351;51.480;5.706;2023-08-06T10:20:34;11.13;;;4.57;;
42714;SDS011;28351;51.480;5.706;2023-08-06T10:23:04;9.10;;;4.10;;
42714;SDS011;28351;51.480;5.706;2023-08-06T10:25:33;10.93;;;4.15;;
42714;SDS011;28351;51.480;5.706;2023-08-06T10:28:09;9.30;;;3.80;;
42714;SDS011;28351;51.480;5.706;2023-08-06T10:30:45;7.25;;;3.85;;
42714;SDS011;28351;51.480;5.706;2023-08-06T10:33:12;7.80;;;4.13;;
42714;SDS011;28351;51.480;5.706;2023-08-06T10:38:14;8.45;;;3.63;;
42714;SDS011;28351;51.480;5.706;2023-08-06T10:46:10;11.77;;;4.45;;
42714;SDS011;28351;51.480;5.706;2023-08-06T10:48:45;7.95;;;3.90;;
42714;SDS011;28351;51.480;5.706;2023-08-06T10:51:12;8.75;;;4.18;;
42714;SDS011;28351;51.480;5.706;2023-08-06T10:53:47;7.70;;;4.05;;
42714;SDS011;28351;51.480;5.706;2023-08-06T10:56:14;13.60;;;4.82;;
42714;SDS011;28351;51.480;5.706;2023-08-06T10:58:47;10.23;;;4.55;;
42714;SDS011;28351;51.480;5.706;2023-08-06T11:01:13;10.02;;;4.43;;
42714;SDS011;28351;51.480;5.706;2023-08-06T11:03:41;9.23;;;4.18;;
42714;SDS011;28351;51.480;5.706;2023-08-06T11:06:07;7.95;;;3.97;;
42714;SDS011;28351;51.480;5.706;2023-08-06T11:08:34;7.75;;;3.78;;
42714;SDS011;28351;51.480;5.706;2023-08-06T11:11:08;9.52;;;4.15;;
42714;SDS011;28351;51.480;5.706;2023-08-06T11:13:36;10.68;;;4.47;;
42714;SDS011;28351;51.480;5.706;2023-08-06T11:16:03;16.45;;;4.85;;
42714;SDS011;28351;51.480;5.706;2023-08-06T11:18:30;10.73;;;3.92;;
42714;SDS011;28351;51.480;5.706;2023-08-06T11:20:58;8.75;;;3.72;;
42714;SDS011;28351;51.480;5.706;2023-08-06T11:23:25;6.40;;;3.55;;
42714;SDS011;28351;51.480;5.706;2023-08-06T11:25:53;9.52;;;3.92;;
42714;SDS011;28351;51.480;5.706;2023-08-06T11:28:19;9.50;;;3.90;;
42714;SDS011;28351;51.480;5.706;2023-08-06T11:30:46;12.85;;;4.00;;
42714;SDS011;28351;51.480;5.706;2023-08-06T11:33:12;7.90;;;3.67;;
42714;SDS011;28351;51.480;5.706;2023-08-06T11:35:38;6.97;;;3.85;;
42714;SDS011;28351;51.480;5.706;2023-08-06T11:38:05;11.05;;;3.60;;
42714;SDS011;28351;51.480;5.706;2023-08-06T11:40:31;8.18;;;3.90;;
42714;SDS011;28351;51.480;5.706;2023-08-06T11:42:57;11.35;;;3.50;;
42714;SDS011;28351;51.480;5.706;2023-08-06T11:45:26;8.75;;;3.97;;
42714;SDS011;28351;51.480;5.706;2023-08-06T11:47:52;6.82;;;3.60;;
42714;SDS011;28351;51.480;5.706;2023-08-06T11:50:24;9.38;;;4.43;;
42714;SDS011;28351;51.480;5.706;2023-08-06T11:52:57;10.50;;;4.30;;
42714;SDS011;28351;51.480;5.706;2023-08-06T11:55:24;12.25;;;4.05;;
42714;SDS011;28351;51.480;5.706;2023-08-06T11:57:51;10.85;;;4.25;;
42714;SDS011;28351;51.480;5.706;2023-08-06T12:00:17;9.90;;;4.10;;
42714;SDS011;28351;51.480;5.706;2023-08-06T12:02:45;7.28;;;3.97;;
42714;SDS011;28351;51.480;5.706;2023-08-06T12:07:38;7.63;;;4.32;;
42714;SDS011;28351;51.480;5.706;2023-08-06T12:10:06;10.38;;;4.28;;
42714;SDS011;28351;51.480;5.706;2023-08-06T12:12:33;7.85;;;4.13;;
42714;SDS011;28351;51.480;5.706;2023-08-06T12:15:00;7.43;;;4.00;;
42714;SDS011;28351;51.480;5.706;2023-08-06T12:17:26;8.90;;;3.97;;
42714;SDS011;28351;51.480;5.706;2023-08-06T12:19:51;10.43;;;4.35;;
42714;SDS011;28351;51.480;5.706;2023-08-06T12:22:17;8.93;;;4.10;;
42714;SDS011;28351;51.480;5.706;2023-08-06T12:24:43;8.52;;;4.15;;
42714;SDS011;28351;51.480;5.706;2023-08-06T12:27:11;7.53;;;3.38;;
42714;SDS011;28351;51.480;5.706;2023-08-06T12:29:43;9.38;;;4.20;;
42714;SDS011;28351;51.480;5.706;2023-08-06T12:32:10;6.80;;;3.45;;
42714;SDS011;28351;51.480;5.706;2023-08-06T12:34:39;10.10;;;4.10;;
42714;SDS011;28351;51.480;5.706;2023-08-06T12:37:06;8.10;;;4.03;;
42714;SDS011;28351;51.480;5.706;2023-08-06T12:39:32;7.93;;;4.60;;
42714;SDS011;28351;51.480;5.706;2023-08-06T12:42:02;7.78;;;4.00;;
42714;SDS011;28351;51.480;5.706;2023-08-06T12:44:28;9.48;;;4.22;;
42714;SDS011;28351;51.480;5.706;2023-08-06T12:46:54;7.45;;;3.78;;
42714;SDS011;28351;51.480;5.706;2023-08-06T12:49:20;6.60;;;3.28;;
42714;SDS011;28351;51.480;5.706;2023-08-06T12:51:46;5.45;;;2.90;;
42714;SDS011;28351;51.480;5.706;2023-08-06T12:54:14;6.50;;;3.35;;
42714;SDS011;28351;51.480;5.706;2023-08-06T12:59:15;8.45;;;2.45;;
42714;SDS011;28351;51.480;5.706;2023-08-06T13:01:42;6.47;;;2.40;;
42714;SDS011;28351;51.480;5.706;2023-08-06T13:04:21;4.45;;;2.53;;
42714;SDS011;28351;51.480;5.706;2023-08-06T13:09:12;5.55;;;2.60;;
42714;SDS011;28351;51.480;5.706;2023-08-06T13:11:39;5.80;;;2.97;;
42714;SDS011;28351;51.480;5.706;2023-08-06T13:14:05;5.40;;;2.13;;
42714;SDS011;28351;51.480;5.706;2023-08-06T13:16:33;9.35;;;2.75;;
42714;SDS011;28351;51.480;5.706;2023-08-06T13:18:59;4.38;;;2.42;;
42714;SDS011;28351;51.480;5.706;2023-08-06T13:21:31;19.55;;;3.35;;
42714;SDS011;28351;51.480;5.706;2023-08-06T13:24:16;12.48;;;3.25;;
42714;SDS011;28351;51.480;5.706;2023-08-06T13:26:43;27.27;;;3.63;;
42714;SDS011;28351;51.480;5.706;2023-08-06T13:29:08;7.95;;;2.80;;
42714;SDS011;28351;51.480;5.706;2023-08-06T13:31:34;10.65;;;3.20;;
42714;SDS011;28351;51.480;5.706;2023-08-06T13:34:00;7.10;;;3.35;;
42714;SDS011;28351;51.480;5.706;2023-08-06T13:36:26;13.55;;;3.65;;
42714;SDS011;28351;51.480;5.706;2023-08-06T13:38:52;9.20;;;4.07;;
42714;SDS011;28351;51.480;5.706;2023-08-06T13:41:18;9.48;;;3.38;;
42714;SDS011;28351;51.480;5.706;2023-08-06T13:43:44;9.43;;;3.00;;
42714;SDS011;28351;51.480;5.706;2023-08-06T13:46:09;9.90;;;3.45;;
42714;SDS011;28351;51.480;5.706;2023-08-06T13:48:40;8.45;;;3.20;;
42714;SDS011;28351;51.480;5.706;2023-08-06T13:51:06;7.18;;;3.40;;
42714;SDS011;28351;51.480;5.706;2023-08-06T13:53:31;7.43;;;3.30;;
42714;SDS011;28351;51.480;5.706;2023-08-06T13:55:57;7.68;;;3.53;;
42714;SDS011;28351;51.480;5.706;2023-08-06T13:58:23;11.48;;;4.30;;
42714;SDS011;28351;51.480;5.706;2023-08-06T14:00:50;5.77;;;3.33;;
42714;SDS011;28351;51.480;5.706;2023-08-06T14:03:18;10.02;;;3.22;;
42714;SDS011;28351;51.480;5.706;2023-08-06T14:05:44;9.75;;;3.42;;
42714;SDS011;28351;51.480;5.706;2023-08-06T14:08:09;5.00;;;3.05;;
42714;SDS011;28351;51.480;5.706;2023-08-06T14:10:35;9.23;;;3.38;;
42714;SDS011;28351;51.480;5.706;2023-08-06T14:13:01;6.40;;;3.10;;
42714;SDS011;28351;51.480;5.706;2023-08-06T14:15:26;7.93;;;2.65;;
42714;SDS011;28351;51.480;5.706;2023-08-06T14:17:52;7.78;;;1.95;;
42714;SDS011;28351;51.480;5.706;2023-08-06T14:20:17;10.80;;;2.20;;
42714;SDS011;28351;51.480;5.706;2023-08-06T14:22:43;7.75;;;2.20;;
42714;SDS011;28351;51.480;5.706;2023-08-06T14:25:09;10.75;;;2.20;;
42714;SDS011;28351;51.480;5.706;2023-08-06T14:27:35;6.97;;;2.00;;
42714;SDS011;28351;51.480;5.706;2023-08-06T14:30:00;9.40;;;2.10;;
42714;SDS011;28351;51.480;5.706;2023-08-06T14:32:28;11.80;;;2.50;;
42714;SDS011;28351;51.480;5.706;2023-08-06T14:34:54;10.43;;;2.67;;
42714;SDS011;28351;51.480;5.706;2023-08-06T14:37:19;16.15;;;3.72;;
42714;SDS011;28351;51.480;5.706;2023-08-06T14:39:45;8.05;;;2.58;;
42714;SDS011;28351;51.480;5.706;2023-08-06T14:42:10;12.55;;;3.38;;
42714;SDS011;28351;51.480;5.706;2023-08-06T14:44:36;8.65;;;3.05;;
42714;SDS011;28351;51.480;5.706;2023-08-06T14:47:02;8.50;;;3.47;;
42714;SDS011;28351;51.480;5.706;2023-08-06T14:49:27;9.63;;;2.97;;
42714;SDS011;28351;51.480;5.706;2023-08-06T14:51:53;5.55;;;2.60;;
42714;SDS011;28351;51.480;5.706;2023-08-06T14:54:19;8.48;;;2.75;;
42714;SDS011;28351;51.480;5.706;2023-08-06T14:56:44;9.85;;;2.70;;
42714;SDS011;28351;51.480;5.706;2023-08-06T14:59:10;8.40;;;2.65;;
42714;SDS011;28351;51.480;5.706;2023-08-06T15:01:36;8.68;;;3.13;;
42714;SDS011;28351;51.480;5.706;2023-08-06T15:04:01;6.93;;;2.20;;
42714;SDS011;28351;51.480;5.706;2023-08-06T15:06:27;7.60;;;2.40;;
42714;SDS011;28351;51.480;5.706;2023-08-06T15:08:53;11.52;;;3.05;;
42714;SDS011;28351;51.480;5.706;2023-08-06T15:11:25;9.35;;;2.72;;
42714;SDS011;28351;51.480;5.706;2023-08-06T15:13:50;9.13;;;2.20;;